Mt. Lincoln Summit Weather observations

Data are for 10 minute period ending at time listed.
 Day   Time   Solar   Ave.   Ave.  Ave.  Vector    Max.   Stn.  
  of    of     Rad.   Air    Rel.  Wind   Wind     Wind   Baro.  
Year   Day            Temp.  Hum.  Speed  Dir.     Gust   Pres. 
2016   (PST)   W/m2    F      %     mph   deg.      mph    mb    
-----------------------------------------------------------------
 267    0:00  999.0    29   36.8    26     14.8    37.1   558.90
 267    0:10  999.0    29   36.7    27     10.1    35.8   560.20
 267    0:20  999.0    29   36.7    27      8.3    35.0   558.20
 267    0:30  999.0    29   36.7    30     10.5    38.5   556.50
 267    0:40  999.0    29   36.7    32     15.9    39.9   562.10
 267    0:50  999.0    28   36.6    32     18.7    41.0   565.40
 267    1:00  999.0    29   36.7    34     19.0    43.9   566.20
 267    1:10  999.0    29   36.7    38     18.0    43.8   566.60
 267    1:20  999.0    29   36.7    36     15.7    43.6   564.10
 267    1:30  999.0    29   36.7    38     13.6    43.2   563.90
 267    1:40  999.0    29   36.7    36     12.7    42.1   561.00
 267    1:50  999.0    29   36.7    35     11.9    41.4   558.30
 267    2:00  999.0    29   36.6    33     27.5    39.8   556.00
 267    2:10  999.0    29   36.7    36     21.0    44.8   558.60
 267    2:20  999.0    28   36.4    27     54.3    34.2   557.60
 267    2:30  999.0    28   36.6    31     39.5    42.9   558.60
 267    2:40  999.0    28   36.5    32     48.3    41.3   560.80
 267    2:50  999.0    27   36.4    34     47.7    42.5   568.20
 267    3:00  999.0    28   36.7    37     36.8    46.5   563.90
 267    3:10  999.0    28   36.3    28     51.1    35.3   561.20
 267    3:20  999.0    27   36.6    31     41.9    42.6   561.80
 267    3:30  999.0    28   36.5    35     50.0    43.2   562.60
 267    3:40  999.0    29   36.8    35     35.3    47.2   561.20
 267    3:50  999.0    28   36.4    28     56.1    32.0   557.00
 267    4:00  999.0    27   36.3    32     63.4    37.7   560.20
 267    4:10  999.0    27   36.5    34     57.5    39.2   564.00
 267    4:20  999.0    28   36.5    33     55.9    39.1   557.80
 267    4:30  999.0    28   36.6    25     50.1    29.4   557.70
 267    4:40  999.0    28   36.5    23     60.3    27.9   555.10
 267    4:50  999.0    28   36.6    25     49.1    28.5   555.60
 267    5:00  999.0    29   36.6    26     54.0    29.0   554.70
 267    5:10  999.0    28   36.5    26     59.4    29.1   559.70
 267    5:20  999.0    28   36.6    28     49.6    30.6   558.60
 267    5:30  999.0    28   36.5    25     50.2    29.7   560.40
 267    5:40  999.0    28   36.6    24     51.8    28.1   560.50
 267    5:50  999.0    28   36.6    26     39.2    32.5   561.40
 267    6:00  999.0    29   36.6    26     40.0    32.6   564.40
 267    6:10  999.0    29   36.7    28     38.2    33.9   561.30
 267    6:20  999.0    30   36.6    27     39.9    33.5   562.40
 267    6:30  999.0    30   36.4    21     50.2    24.7   561.20
 267    6:40  999.0    30   36.5    14     49.6    17.7   559.20
 267    6:50  999.0    31   36.5    18     49.5    26.9   561.90
 267    7:00  999.0    31   36.4    16     66.0    19.9   562.30
 267    7:10  999.0    31   36.2    15     69.5    19.0   556.90
 267    7:20  999.0    31   36.2    16     58.7    19.2   554.80
 267    7:30  999.0    32   36.3    14     51.8    20.3   553.30
 267    7:40  999.0    32   36.5    16     47.9    23.2   556.10
 267    7:50  999.0    33   36.6    16     59.8    22.2   559.50
 267    8:00  999.0    34   36.5    17     56.3    25.0   559.90
 267    8:10  999.0    34   36.6    18     38.5    25.6   562.80
 267    8:20  999.0    35   36.8    14     35.2    20.0   564.50
 267    8:30  999.0    36   36.8    13     41.8    18.5   564.00
 267    8:40  999.0    36   36.9    12     58.7    17.9   567.80
 267    8:50  999.0    36   36.9    13     70.8    16.0   568.90
 267    9:00  999.0    37   37.0    11     62.9    18.0   562.70
 267    9:10  999.0    38   37.0     9     57.7    17.6   560.70
 267    9:20  999.0    38   37.0    15     54.4    19.4   569.50
 267    9:30  999.0    38   37.2    14     53.8    19.0   573.50
 267    9:40  999.0    39   37.2    14     40.8    19.6   573.80
 267    9:50  999.0    40   37.5    14     32.2    21.8   574.60
 267   10:00  999.0    41   37.5     8     35.0    15.7   570.30
 267   10:10  999.0    42   37.4    11     51.0    17.3   572.40
 267   10:20  999.0    41   37.2    10     67.3    16.1   574.10
 267   10:30  999.0    42   37.3    14     61.1    18.2   577.00
 267   10:40  999.0    42   37.4    12     59.0    17.2   576.30
 267   10:50  999.0    43   37.5    16     32.6    23.3   577.60
 267   11:00  999.0    43   37.5    21     19.7    27.8   581.10
 267   11:10  999.0    44   37.6    24     11.6    30.0   583.70
 267   11:20  999.0    44   37.5    25      7.7    31.5   581.40
 267   11:30  999.0    45   37.7    26     13.6    33.8   585.80
 267   11:40  999.0    46   37.7    26     10.1    34.1   585.20
 267   11:50  999.0    46   37.8    23      4.4    32.3   587.80
 267   12:00  999.0    47   37.8    21      6.5    28.1   583.80
 267   12:10  999.0    48   37.8    20    355.2    29.0   584.20
 267   12:20  999.0    48   37.7    19     12.9    28.5   585.80
 267   12:30  999.0    48   37.9    20     19.8    30.5   587.90
 267   12:40  999.0    49   37.9    24     19.2    34.3   586.20
 267   12:50  999.0    49   38.0    23     12.6    31.3   587.30
 267   13:00  999.0    50   38.0    22      6.0    34.9   589.10
 267   13:10  999.0    50   38.0    18     16.2    28.9   586.30
 267   13:20  999.0    50   38.0    18     15.6    26.1   586.20
 267   13:30  999.0    51   38.2    15     15.8    23.7   589.70
 267   13:40  999.0    52   38.2    11     11.9    26.2   587.10
 267   13:50  999.0    54   38.2     5    358.5    12.9   585.10
 267   14:00  999.0    54   37.9     3     33.9     9.3   585.50
 267   14:10  999.0    56   37.3     3      4.3    12.6   585.60
 267   14:20  999.0    54   37.1    10    348.5    15.2   587.60
 267   14:30  999.0    54   37.7     8    339.6    14.8   586.70
 267   14:40  999.0    53   37.9     8    314.2    14.0   588.50
 267   14:50  999.0    53   38.2     8    316.4    14.1   588.30
 267   15:00  999.0    53   38.2    10    326.6    14.3   589.40
 267   15:10  999.0    54   38.2     8    259.9    17.4   585.70
 267   15:20  999.0    52   38.0     5    312.3    10.0   584.40
 267   15:30  999.0    52   38.2     3    320.5    10.1   586.20
 267   15:40  999.0    53   38.2     4    293.5     9.7   584.20
 267   15:50  999.0    52   38.1     8    309.3    14.3   586.50
 267   16:00  999.0    52   38.1     9    274.9    15.4   589.00
 267   16:10  999.0    51   38.2    10    268.0    14.3   589.80
 267   16:20  999.0    51   38.2    10    252.7    17.0   589.00
 267   16:30  999.0    51   38.2    12    260.5    16.8   588.50
 267   16:40  999.0    51   38.2    12    250.2    16.2   588.00
 267   16:50  999.0    50   38.1    15    242.6    23.7   586.40
 267   17:00  999.0    49   38.1    14    242.7    18.2   584.30
 267   17:10  999.0    49   38.0    12    241.8    19.0   581.50
 267   17:20  999.0    48   38.0    14    249.1    20.0   583.30

Return to Mt. Lincoln graphs page.


Western Regional Climate Center,wrcc@dri.edu